Time;durP1;ratioP1;P1;durP2;ratioP2;P2;SDS_P1;SDS_P2;PMS_P1;PMS_P2;Temp;Humidity;BMP_temperature;BMP_pressure;BME280_temperature;BME280_humidity;BME280_pressure;Samples;Min_cycle;Max_cycle;Signal;HPM_P1;HPM_P2
2022/09/19 00:01:14;;;;;;;11.87;2.70;;;11.40;99.90;;;;;;4994088;28;20495;-72
2022/09/19 00:03:43;;;;;;;8.30;1.83;;;11.30;99.90;;;;;;4994331;28;20062;-72
2022/09/19 00:06:10;;;;;;;7.75;1.60;;;11.30;99.90;;;;;;4993676;28;20030;-71
2022/09/19 00:08:38;;;;;;;9.17;1.87;;;11.30;99.90;;;;;;4993838;28;20474;-72
2022/09/19 00:11:06;;;;;;;11.83;2.50;;;11.30;99.90;;;;;;4994418;28;20146;-72
2022/09/19 00:13:34;;;;;;;8.70;1.67;;;11.40;99.90;;;;;;4994124;28;20066;-72
2022/09/19 00:16:00;;;;;;;18.88;6.95;;;11.30;99.90;;;;;;4994000;28;20120;-72
2022/09/19 00:18:27;;;;;;;15.53;4.80;;;11.40;99.90;;;;;;4994212;28;20042;-72
2022/09/19 00:20:53;;;;;;;18.27;5.33;;;11.40;99.90;;;;;;4993745;28;20537;-72
2022/09/19 00:26:10;;;;;;;15.43;2.33;;;11.40;99.90;;;;;;4994019;28;20455;-73
2022/09/19 00:28:38;;;;;;;13.00;3.17;;;11.40;99.90;;;;;;4993592;28;20033;-72
2022/09/19 00:31:04;;;;;;;11.20;2.73;;;11.40;99.90;;;;;;4992273;28;20027;-72
2022/09/19 00:33:32;;;;;;;11.70;3.20;;;11.40;99.90;;;;;;4993580;28;20038;-72
2022/09/19 00:36:03;;;;;;;14.93;3.77;;;11.40;99.90;;;;;;4992201;28;20027;-72
2022/09/19 00:38:30;;;;;;;20.50;3.47;;;11.40;99.90;;;;;;4993552;28;20041;-72
2022/09/19 00:40:57;;;;;;;11.60;3.00;;;11.40;99.90;;;;;;4993408;28;20034;-72
2022/09/19 00:43:42;;;;;;;11.53;2.87;;;11.40;99.90;;;;;;4993544;28;20030;-72
2022/09/19 00:46:07;;;;;;;10.90;3.00;;;11.30;99.90;;;;;;4992002;28;20042;-72
2022/09/19 00:48:35;;;;;;;19.50;3.13;;;11.30;99.90;;;;;;4992102;28;20030;-72
2022/09/19 00:51:04;;;;;;;12.60;3.00;;;11.30;99.90;;;;;;4991953;28;20245;-72
2022/09/19 00:53:31;;;;;;;15.73;2.45;;;11.30;99.90;;;;;;4993341;28;20026;-72
2022/09/19 00:55:57;;;;;;;13.60;2.93;;;11.30;99.90;;;;;;4993134;28;20507;-72
2022/09/19 00:58:38;;;;;;;11.23;1.90;;;11.30;99.90;;;;;;4991829;28;20057;-72
2022/09/19 01:01:04;;;;;;;16.17;2.63;;;11.30;99.90;;;;;;4993029;28;20042;-72
2022/09/19 01:03:30;;;;;;;13.40;2.50;;;11.30;99.90;;;;;;4993276;28;20038;-72
2022/09/19 01:06:08;;;;;;;10.20;2.13;;;11.30;99.90;;;;;;4992966;28;20027;-72
2022/09/19 01:08:59;;;;;;;13.73;2.70;;;11.30;99.90;;;;;;5008078;28;20411;-72
2022/09/19 01:11:31;;;;;;;8.93;1.70;;;11.30;99.90;;;;;;4992936;28;20027;-72
2022/09/19 01:14:05;;;;;;;14.83;2.30;;;11.40;99.90;;;;;;4993097;28;20041;-72
2022/09/19 01:16:44;;;;;;;12.67;2.57;;;11.30;99.90;;;;;;4993434;28;20065;-72
2022/09/19 01:19:35;;;;;;;16.30;2.35;;;11.30;99.90;;;;;;4992211;28;20399;-72
2022/09/19 01:22:19;;;;;;;13.73;2.10;;;11.30;99.90;;;;;;4991715;28;20558;-72
2022/09/19 01:25:43;;;;;;;9.40;1.90;;;11.30;99.90;;;;;;4991941;28;20037;-72
2022/09/19 01:28:20;;;;;;;10.73;2.10;;;11.30;99.90;;;;;;4977304;28;20054;-72
2022/09/19 01:31:35;;;;;;;9.33;2.20;;;11.40;99.90;;;;;;4991423;28;20034;-72
2022/09/19 01:34:05;;;;;;;10.03;2.07;;;11.40;99.90;;;;;;4988518;28;20034;-72
2022/09/19 01:37:07;;;;;;;10.60;1.80;;;11.40;99.90;;;;;;4991419;28;20026;-72
2022/09/19 01:39:38;;;;;;;13.90;2.20;;;11.40;99.90;;;;;;4983312;28;20058;-72
2022/09/19 01:42:05;;;;;;;10.93;2.67;;;11.40;99.90;;;;;;4991461;28;20026;-72
2022/09/19 01:44:32;;;;;;;16.17;2.47;;;11.40;99.90;;;;;;4991426;28;20039;-72
2022/09/19 01:47:02;;;;;;;14.48;2.40;;;11.40;99.90;;;;;;4991274;28;20030;-72
2022/09/19 01:49:42;;;;;;;12.70;1.80;;;11.40;99.90;;;;;;4991328;28;20068;-72
2022/09/19 01:52:21;;;;;;;14.80;2.43;;;11.40;99.90;;;;;;4991367;28;20034;-72
2022/09/19 01:54:47;;;;;;;;;;;11.40;99.90;;;;;;4991533;28;20034;-72
2022/09/19 01:57:29;;;;;;;15.77;3.33;;;11.40;99.90;;;;;;5007533;28;19974;-72
2022/09/19 02:00:05;;;;;;;12.80;3.17;;;11.40;99.90;;;;;;4990903;28;20080;-72
2022/09/19 02:02:57;;;;;;;15.80;2.47;;;11.40;99.90;;;;;;4991037;28;20039;-72
2022/09/19 02:05:36;;;;;;;13.10;2.20;;;11.40;99.90;;;;;;4990703;28;20030;-72
2022/09/19 02:08:19;;;;;;;16.58;3.47;;;11.40;99.90;;;;;;4990708;28;20441;-72
2022/09/19 02:11:12;;;;;;;10.47;2.00;;;11.40;99.90;;;;;;4990437;28;20114;-72
2022/09/19 02:13:46;;;;;;;11.63;2.00;;;11.40;99.90;;;;;;4990568;28;20042;-72
2022/09/19 02:16:18;;;;;;;14.73;2.13;;;11.40;99.90;;;;;;4990509;28;20030;-72
2022/09/19 02:18:51;;;;;;;12.53;2.13;;;11.40;99.90;;;;;;4974191;28;20384;-72
2022/09/19 02:21:25;;;;;;;15.67;2.13;;;11.30;99.90;;;;;;4990555;28;20491;-72
2022/09/19 02:23:55;;;;;;;12.13;2.20;;;11.40;99.90;;;;;;4990332;28;20088;-72
2022/09/19 02:26:22;;;;;;;11.87;2.27;;;11.40;99.90;;;;;;4991477;28;20042;-72
2022/09/19 02:28:56;;;;;;;13.27;2.50;;;11.30;99.90;;;;;;4990274;28;20475;-72
2022/09/19 02:31:27;;;;;;;11.37;2.10;;;11.30;99.90;;;;;;4990308;28;20034;-72
2022/09/19 02:34:06;;;;;;;13.50;3.17;;;11.30;99.90;;;;;;5006676;28;20030;-72
2022/09/19 02:36:46;;;;;;;10.65;2.08;;;11.30;99.90;;;;;;4991512;28;20104;-72
2022/09/19 02:39:21;;;;;;;15.93;2.73;;;11.30;99.90;;;;;;4990330;28;20049;-72
2022/09/19 02:42:01;;;;;;;17.07;2.77;;;11.30;99.90;;;;;;4990104;28;20539;-72
2022/09/19 02:44:52;;;;;;;14.87;2.43;;;11.30;99.90;;;;;;5006782;28;20046;-72
2022/09/19 02:47:28;;;;;;;16.17;2.47;;;11.40;99.90;;;;;;4990338;28;20042;-72
2022/09/19 02:50:20;;;;;;;11.77;2.20;;;11.40;99.90;;;;;;4990084;28;20026;-72
2022/09/19 02:52:48;;;;;;;10.87;2.13;;;11.40;99.90;;;;;;4990210;28;20026;-72
2022/09/19 02:55:25;;;;;;;11.30;2.00;;;11.30;99.90;;;;;;4974564;28;20510;-72
2022/09/19 02:57:57;;;;;;;12.27;2.13;;;11.40;99.90;;;;;;4990122;28;20034;-72
2022/09/19 03:00:26;;;;;;;14.07;1.90;;;11.40;99.90;;;;;;5006272;28;20037;-72
2022/09/19 03:04:11;;;;;;;11.70;1.93;;;11.40;99.90;;;;;;4990158;28;20438;-72
2022/09/19 03:05:53;;;;;;;15.53;2.53;;;11.40;99.90;;;;;;4989633;28;20034;-72
2022/09/19 03:08:24;;;;;;;12.37;2.50;;;11.30;99.90;;;;;;4990023;28;20133;-72
2022/09/19 03:10:57;;;;;;;11.23;2.10;;;11.30;99.90;;;;;;4990052;28;20508;-72
2022/09/19 03:13:34;;;;;;;16.43;2.00;;;11.40;99.90;;;;;;4989974;28;20088;-72
2022/09/19 03:16:14;;;;;;;9.67;1.83;;;11.30;99.90;;;;;;5006100;28;20045;-72
2022/09/19 03:18:45;;;;;;;17.33;2.53;;;11.30;99.90;;;;;;5036486;23;20069;-85
2022/09/19 03:21:12;;;;;;;21.20;3.50;;;11.30;99.90;;;;;;5012828;28;20025;-85
2022/09/19 03:23:42;;;;;;;10.47;2.00;;;11.30;99.90;;;;;;5012457;28;20026;-85
2022/09/19 03:26:12;;;;;;;10.93;2.22;;;11.40;99.90;;;;;;5012324;28;20490;-85
2022/09/19 03:28:38;;;;;;;10.67;2.00;;;11.40;99.90;;;;;;5012645;28;20505;-85
2022/09/19 03:31:05;;;;;;;10.73;1.70;;;11.40;99.90;;;;;;5030141;28;20082;-85
2022/09/19 03:33:32;;;;;;;18.17;3.20;;;11.40;99.90;;;;;;5012461;28;20076;-85
2022/09/19 03:36:07;;;;;;;10.80;2.10;;;11.30;99.90;;;;;;5012281;28;20057;-85
2022/09/19 03:38:40;;;;;;;11.47;1.53;;;11.30;99.90;;;;;;5012233;28;20040;-85
2022/09/19 03:41:06;;;;;;;14.90;1.87;;;11.30;99.90;;;;;;5013102;28;20037;-85
2022/09/19 03:43:32;;;;;;;12.03;2.67;;;11.30;99.90;;;;;;5034151;28;20038;-85
2022/09/19 03:45:58;;;;;;;17.67;2.60;;;11.30;99.90;;;;;;5015843;28;20036;-85
2022/09/19 03:48:26;;;;;;;12.53;2.40;;;11.30;99.90;;;;;;5015913;28;20079;-85
2022/09/19 03:50:53;;;;;;;17.93;2.30;;;11.30;99.90;;;;;;5015621;28;20120;-85
2022/09/19 03:53:20;;;;;;;14.87;2.23;;;11.20;99.90;;;;;;5015964;28;20026;-85
2022/09/19 03:55:46;;;;;;;9.90;2.23;;;11.20;99.90;;;;;;5015943;28;20029;-84
2022/09/19 03:58:16;;;;;;;11.52;2.20;;;11.20;99.90;;;;;;4999880;28;20029;-85
2022/09/19 04:00:42;;;;;;;10.00;1.87;;;11.20;99.90;;;;;;5015875;28;20040;-85
2022/09/19 04:03:10;;;;;;;14.13;2.10;;;11.20;99.90;;;;;;5015923;28;20025;-85
2022/09/19 04:05:36;;;;;;;13.00;2.03;;;11.20;99.90;;;;;;5015244;28;20037;-85
2022/09/19 04:08:02;;;;;;;10.43;2.17;;;11.20;99.90;;;;;;4999384;28;20026;-85
2022/09/19 04:10:28;;;;;;;11.90;2.20;;;11.20;99.90;;;;;;5033154;28;20297;-85
2022/09/19 04:12:56;;;;;;;17.70;3.60;;;11.20;99.90;;;;;;5033708;28;20022;-85
2022/09/19 04:15:22;;;;;;;17.17;3.27;;;11.20;99.90;;;;;;4999229;28;20493;-85
2022/09/19 04:17:48;;;;;;;17.57;3.70;;;11.10;99.90;;;;;;5015262;28;20087;-85
2022/09/19 04:20:17;;;;;;;16.90;4.00;;;11.10;99.90;;;;;;5015063;28;20079;-85
2022/09/19 04:23:16;;;;;;;14.73;3.40;;;11.10;99.90;;;;;;5023848;28;20116;-85
2022/09/19 04:25:58;;;;;;;18.40;4.63;;;11.10;99.90;;;;;;5000875;28;20029;-85
2022/09/19 04:28:39;;;;;;;22.33;5.30;;;11.10;99.90;;;;;;5000496;28;20033;-85
2022/09/19 04:31:09;;;;;;;16.67;4.23;;;11.10;99.90;;;;;;5015041;28;20029;-85
2022/09/19 04:33:36;;;;;;;18.43;4.17;;;11.10;99.90;;;;;;5015060;28;20129;-85
2022/09/19 04:36:05;;;;;;;16.83;4.30;;;11.10;99.90;;;;;;4998623;28;20025;-85
2022/09/19 04:38:33;;;;;;;17.77;4.13;;;11.10;99.90;;;;;;4998500;28;20037;-86
2022/09/19 04:41:01;;;;;;;14.43;3.50;;;11.10;99.90;;;;;;5014888;28;20061;-86
2022/09/19 04:43:29;;;;;;;15.00;4.07;;;11.10;99.90;;;;;;5015142;28;20452;-86
2022/09/19 04:46:08;;;;;;;21.83;5.47;;;11.20;99.90;;;;;;5014762;28;20037;-85
2022/09/19 04:48:45;;;;;;;16.20;4.30;;;11.10;99.90;;;;;;5032439;28;20057;-85
2022/09/19 04:51:11;;;;;;;16.27;3.33;;;11.20;99.90;;;;;;5014705;28;20375;-85
2022/09/19 04:53:38;;;;;;;14.03;3.43;;;11.20;99.90;;;;;;5013618;28;20021;-84
2022/09/19 04:56:04;;;;;;;17.13;3.50;;;11.10;99.90;;;;;;5014498;28;20520;-84
2022/09/19 04:58:32;;;;;;;18.77;4.00;;;11.20;99.90;;;;;;4998140;28;20034;-85
2022/09/19 05:00:59;;;;;;;19.07;4.37;;;11.20;99.90;;;;;;4998540;28;20112;-84
2022/09/19 05:03:27;;;;;;;18.03;3.50;;;11.20;99.90;;;;;;5014451;28;20509;-85
2022/09/19 05:05:54;;;;;;;14.60;3.10;;;11.10;99.90;;;;;;5014357;28;20033;-85
2022/09/19 05:08:32;;;;;;;17.77;3.53;;;11.20;99.90;;;;;;4999275;28;20026;-85
2022/09/19 05:11:21;;;;;;;11.97;2.80;;;11.20;99.90;;;;;;5010591;28;20038;-85
2022/09/19 05:13:49;;;;;;;;;;;11.10;99.90;;;;;;5014904;28;20053;-85
2022/09/19 05:16:18;;;;;;;9.53;2.67;;;11.10;99.90;;;;;;5030594;28;20029;-85
2022/09/19 05:18:53;;;;;;;18.17;2.67;;;11.10;99.90;;;;;;5013964;28;20398;-84
2022/09/19 05:21:19;;;;;;;13.37;2.67;;;11.10;99.90;;;;;;5031875;28;20441;-85
2022/09/19 05:23:46;;;;;;;14.77;2.83;;;11.10;99.90;;;;;;5014330;28;20125;-84
2022/09/19 05:26:16;;;;;;;12.70;2.70;;;11.10;99.90;;;;;;4997555;28;20112;-84
2022/09/19 05:28:45;;;;;;;14.60;2.57;;;11.10;99.90;;;;;;5013718;28;20117;-84
2022/09/19 05:31:13;;;;;;;11.27;2.40;;;11.10;99.90;;;;;;5013821;28;20025;-84
2022/09/19 05:33:44;;;;;;;12.07;2.40;;;11.10;99.90;;;;;;5014404;28;20087;-84
2022/09/19 05:36:15;;;;;;;10.73;2.47;;;11.10;99.90;;;;;;5013732;28;20065;-84
2022/09/19 05:38:57;;;;;;;11.07;2.27;;;11.10;99.90;;;;;;5013803;28;20513;-84
2022/09/19 05:41:42;;;;;;;10.87;2.20;;;11.00;99.90;;;;;;5016463;28;20049;-84
2022/09/19 05:44:16;;;;;;;13.07;2.77;;;11.00;99.90;;;;;;5015167;28;20392;-84
2022/09/19 05:46:46;;;;;;;9.83;2.23;;;11.00;99.90;;;;;;5013688;28;20379;-84
2022/09/19 05:49:11;;;;;;;16.10;2.93;;;11.00;99.90;;;;;;5013408;28;20132;-85
2022/09/19 05:51:37;;;;;;;9.37;2.07;;;11.00;99.90;;;;;;5013592;28;20057;-85
2022/09/19 05:54:06;;;;;;;13.37;2.40;;;11.00;99.90;;;;;;5014017;28;20399;-85
2022/09/19 05:56:31;;;;;;;13.90;2.60;;;10.90;99.90;;;;;;5031255;28;20037;-84
2022/09/19 05:59:00;;;;;;;13.45;2.97;;;10.90;99.90;;;;;;5013986;28;20052;-84
2022/09/19 06:01:27;;;;;;;13.43;2.67;;;10.90;99.90;;;;;;5013289;28;20044;-85
2022/09/19 06:03:54;;;;;;;12.33;2.30;;;10.90;99.90;;;;;;5013111;28;20053;-85
2022/09/19 06:06:22;;;;;;;10.13;2.30;;;11.00;99.90;;;;;;5013066;28;20037;-85
2022/09/19 06:08:57;;;;;;;13.73;2.60;;;10.90;99.90;;;;;;5013350;28;20029;-84
2022/09/19 06:11:24;;;;;;;14.47;2.73;;;10.90;99.90;;;;;;5013199;28;20501;-85
2022/09/19 06:16:37;;;;;;;13.33;2.43;;;11.00;99.90;;;;;;5030891;28;20025;-84
2022/09/19 06:19:21;;;;;;;12.60;2.73;;;11.00;99.90;;;;;;5030558;28;20134;-84
2022/09/19 06:22:05;;;;;;;16.10;3.10;;;11.00;99.90;;;;;;5013284;28;20401;-84
2022/09/19 06:24:31;;;;;;;20.83;4.50;;;11.00;99.90;;;;;;5013207;28;20029;-84
2022/09/19 06:27:00;;;;;;;15.43;4.07;;;11.10;99.90;;;;;;5012971;28;20037;-85
2022/09/19 06:29:26;;;;;;;14.13;3.30;;;11.10;99.90;;;;;;5012876;28;20405;-85
2022/09/19 06:32:24;;;;;;;13.83;2.80;;;11.10;99.90;;;;;;4997137;28;20371;-84
2022/09/19 06:35:09;;;;;;;17.27;2.90;;;11.10;99.90;;;;;;5013110;28;20397;-85
2022/09/19 06:37:35;;;;;;;16.23;2.70;;;11.20;99.90;;;;;;5012713;28;20557;-84
2022/09/19 06:40:03;;;;;;;11.33;2.80;;;11.20;99.90;;;;;;5012977;28;20446;-85
2022/09/19 06:42:48;;;;;;;10.97;2.90;;;11.20;99.90;;;;;;5015938;28;20074;-85
2022/09/19 06:45:37;;;;;;;16.23;3.30;;;11.30;99.90;;;;;;5012891;28;20037;-85
2022/09/19 06:48:40;;;;;;;12.20;2.93;;;11.30;99.90;;;;;;5012617;28;20112;-85
2022/09/19 06:51:20;;;;;;;17.53;4.03;;;11.30;99.90;;;;;;5012854;28;20090;-85
2022/09/19 06:53:50;;;;;;;16.33;4.20;;;11.40;99.90;;;;;;4996638;28;20497;-85
2022/09/19 06:56:16;;;;;;;20.57;4.60;;;11.40;99.90;;;;;;5012442;28;20025;-85
2022/09/19 06:58:42;;;;;;;18.53;3.90;;;11.50;99.90;;;;;;5012545;28;20033;-85
2022/09/19 07:01:08;;;;;;;15.83;2.60;;;11.60;99.90;;;;;;5030435;28;20048;-85
2022/09/19 07:03:35;;;;;;;13.70;3.57;;;11.60;99.90;;;;;;4996486;28;20029;-85
2022/09/19 07:06:01;;;;;;;17.23;3.80;;;11.70;99.90;;;;;;5012641;28;20037;-85
2022/09/19 07:08:37;;;;;;;16.10;3.57;;;11.70;99.90;;;;;;4997416;28;20386;-85
2022/09/19 07:11:06;;;;;;;12.83;3.33;;;11.80;99.90;;;;;;5012582;28;20497;-85
2022/09/19 07:13:36;;;;;;;15.53;3.60;;;11.90;99.90;;;;;;5012622;28;20025;-84
2022/09/19 07:16:06;;;;;;;14.27;3.67;;;12.00;99.90;;;;;;5013292;28;20035;-84
2022/09/19 07:26:13;;;;;;;13.25;3.47;;;12.30;99.90;;;;;;5034902;23;20141;-73
2022/09/19 07:28:41;;;;;;;19.80;5.03;;;12.70;99.90;;;;;;5012489;28;20509;-72
2022/09/19 07:31:08;;;;;;;15.90;3.92;;;12.90;99.90;;;;;;4997118;28;20616;-74
2022/09/19 07:33:38;;;;;;;14.30;2.72;;;12.90;99.90;;;;;;4997502;28;20041;-72
2022/09/19 07:36:07;;;;;;;13.93;2.58;;;13.10;99.90;;;;;;5002482;28;20030;-72
2022/09/19 07:38:34;;;;;;;11.45;2.60;;;13.00;99.90;;;;;;5012797;28;20030;-72
2022/09/19 07:41:06;;;;;;;12.27;2.78;;;13.00;99.90;;;;;;5008981;28;20042;-72
2022/09/19 07:43:37;;;;;;;10.98;2.88;;;12.90;99.90;;;;;;5009790;28;20030;-71
2022/09/19 07:46:17;;;;;;;9.00;2.08;;;12.80;99.90;;;;;;4993069;28;20461;-71
2022/09/19 07:48:56;;;;;;;9.90;2.38;;;12.80;99.90;;;;;;4993214;28;20116;-71
2022/09/19 07:51:34;;;;;;;8.85;1.95;;;12.80;99.90;;;;;;4994295;28;20122;-71
2022/09/19 07:54:01;;;;;;;11.27;1.90;;;12.80;99.90;;;;;;5009491;28;20026;-71
2022/09/19 07:56:27;;;;;;;9.02;2.35;;;12.70;99.90;;;;;;5009302;28;20032;-71
2022/09/19 07:58:53;;;;;;;13.48;2.45;;;12.80;99.90;;;;;;5009290;28;20518;-71
2022/09/19 08:01:20;;;;;;;14.00;2.75;;;12.80;99.90;;;;;;5009095;28;20034;-71
2022/09/19 08:04:04;;;;;;;9.27;2.00;;;12.80;99.90;;;;;;4994413;28;20033;-71
2022/09/19 08:06:45;;;;;;;9.90;2.28;;;12.80;99.90;;;;;;5001292;28;20033;-71
2022/09/19 08:09:12;;;;;;;12.95;1.80;;;12.90;99.90;;;;;;5012307;28;20026;-71
2022/09/19 08:11:53;;;;;;;10.35;1.70;;;12.90;99.90;;;;;;5013501;28;20116;-71
2022/09/19 08:14:23;;;;;;;;;;;13.00;99.90;;;;;;5012873;28;20034;-71
2022/09/19 08:16:51;;;;;;;14.85;2.53;;;13.00;99.90;;;;;;5012260;28;19960;-71
2022/09/19 08:19:17;;;;;;;14.60;2.58;;;13.00;99.90;;;;;;5013423;28;20410;-71
2022/09/19 08:21:42;;;;;;;12.05;2.00;;;13.00;99.90;;;;;;5012006;28;20037;-71
2022/09/19 08:24:09;;;;;;;16.75;3.70;;;13.10;99.90;;;;;;5012183;28;20445;-71
2022/09/19 08:26:35;;;;;;;15.32;3.60;;;13.10;99.90;;;;;;5012114;28;20141;-71
2022/09/19 08:29:02;;;;;;;11.32;2.22;;;13.10;99.90;;;;;;5012120;28;20450;-71
2022/09/19 08:31:32;;;;;;;12.07;2.38;;;13.20;99.90;;;;;;5012104;28;20030;-71
2022/09/19 08:34:00;;;;;;;17.02;2.78;;;13.20;99.90;;;;;;5013364;28;20316;-71
2022/09/19 08:36:26;;;;;;;10.77;2.85;;;13.30;99.90;;;;;;5011802;28;20080;-71
2022/09/19 08:38:54;;;;;;;12.35;3.85;;;13.30;99.90;;;;;;5011666;28;20502;-71
2022/09/19 08:41:40;;;;;;;13.65;3.63;;;13.30;99.90;;;;;;5011812;28;20076;-71
2022/09/19 08:44:43;;;;;;;15.57;2.35;;;13.30;99.90;;;;;;5011818;28;20068;-70
2022/09/19 08:47:21;;;;;;;18.85;3.20;;;13.30;99.90;;;;;;5005046;28;20038;-72
2022/09/19 08:50:17;;;;;;;11.68;2.22;;;13.40;99.90;;;;;;5011344;28;20062;-71
2022/09/19 08:52:50;;;;;;;14.60;2.22;;;13.50;99.90;;;;;;5013047;28;20033;-71
2022/09/19 08:55:24;;;;;;;12.55;2.03;;;13.50;99.90;;;;;;5011601;28;20030;-72
2022/09/19 08:58:11;;;;;;;13.82;2.85;;;13.60;99.90;;;;;;5011634;28;20091;-71
2022/09/19 09:01:06;;;;;;;13.23;2.00;;;13.70;99.90;;;;;;5011359;28;20041;-71
2022/09/19 09:03:54;;;;;;;9.15;1.70;;;13.70;99.90;;;;;;5011501;28;20030;-71
2022/09/19 09:06:35;;;;;;;10.50;2.47;;;13.80;99.90;;;;;;5010970;28;20557;-71
2022/09/19 09:09:31;;;;;;;16.10;1.95;;;13.80;99.90;;;;;;5012623;28;20104;-71
2022/09/19 09:12:35;;;;;;;10.63;2.10;;;13.80;99.90;;;;;;4984533;28;20125;-70
2022/09/19 09:15:38;;;;;;;13.07;2.05;;;13.80;99.90;;;;;;5011187;28;20044;-72
2022/09/19 09:18:30;;;;;;;15.23;2.40;;;13.90;99.90;;;;;;5011152;28;20045;-72
2022/09/19 09:21:14;;;;;;;15.27;2.72;;;14.00;99.90;;;;;;5015807;28;20026;-72
2022/09/19 09:23:45;;;;;;;12.63;2.53;;;14.10;99.90;;;;;;5011518;28;20398;-72
2022/09/19 09:26:36;;;;;;;11.45;2.53;;;14.10;99.90;;;;;;5023039;28;20044;-72
2022/09/19 09:29:17;;;;;;;9.93;1.73;;;14.20;99.90;;;;;;5001325;28;20550;-71
2022/09/19 09:32:30;;;;;;;10.68;1.83;;;14.20;99.90;;;;;;5012262;28;20547;-71
2022/09/19 09:35:12;;;;;;;9.55;1.65;;;14.20;99.90;;;;;;5000294;28;20031;-71
2022/09/19 09:37:56;;;;;;;9.68;1.38;;;14.20;99.90;;;;;;5007317;28;20058;-71
2022/09/19 09:43:41;;;;;;;9.93;1.60;;;14.20;99.90;;;;;;5003163;28;20064;-71
2022/09/19 09:46:12;;;;;;;11.30;2.80;;;14.30;99.90;;;;;;5025574;28;20032;-71
2022/09/19 09:48:39;;;;;;;15.80;2.95;;;14.30;99.90;;;;;;5010941;28;20542;-71
2022/09/19 09:51:26;;;;;;;11.20;1.83;;;14.30;99.90;;;;;;5008561;28;20085;-72
2022/09/19 09:57:44;;;;;;;6.53;1.63;;;14.40;99.90;;;;;;4993059;28;20027;-72
2022/09/19 10:03:36;;;;;;;12.95;1.95;;;14.40;99.90;;;;;;4991889;28;20125;-72
2022/09/19 10:06:52;;;;;;;14.23;1.70;;;14.50;99.90;;;;;;4998892;28;20117;-73
2022/09/19 10:09:29;;;;;;;9.73;1.60;;;14.50;99.90;;;;;;4992124;28;20035;-71
2022/09/19 10:12:23;;;;;;;8.18;1.98;;;14.50;99.90;;;;;;4995155;28;20033;-70
2022/09/19 10:14:55;;;;;;;8.65;1.98;;;14.50;99.90;;;;;;4995378;28;20034;-70
2022/09/19 10:17:48;;;;;;;13.02;1.65;;;14.60;99.90;;;;;;4997235;28;20045;-70
2022/09/19 10:20:22;;;;;;;12.52;1.95;;;14.60;99.90;;;;;;4997405;28;20074;-70
2022/09/19 10:22:49;;;;;;;9.20;1.58;;;14.50;99.90;;;;;;4995754;28;20436;-70
2022/09/19 10:25:21;;;;;;;11.48;2.13;;;14.50;99.90;;;;;;4993466;28;20085;-71
2022/09/19 10:27:49;;;;;;;12.52;1.77;;;14.50;99.90;;;;;;4990480;28;20035;-70
2022/09/19 10:30:41;;;;;;;9.88;1.80;;;14.50;99.90;;;;;;5006008;28;20030;-71
2022/09/19 10:33:38;;;;;;;15.55;2.22;;;14.50;99.90;;;;;;4988941;28;20510;-70
2022/09/19 10:36:15;;;;;;;13.18;1.88;;;14.50;99.90;;;;;;4989281;28;20030;-71
2022/09/19 10:39:09;;;;;;;11.82;1.92;;;14.50;99.90;;;;;;4988950;28;20502;-70
2022/09/19 10:41:36;;;;;;;9.90;1.60;;;14.60;99.90;;;;;;4988986;28;20037;-70
2022/09/19 10:44:08;;;;;;;11.30;1.48;;;14.70;99.90;;;;;;5005311;28;20490;-70
2022/09/19 10:46:43;;;;;;;7.85;1.88;;;14.70;99.90;;;;;;5004891;28;20031;-70
2022/09/19 10:49:38;;;;;;;13.43;3.13;;;14.90;99.90;;;;;;4990132;28;20038;-70
2022/09/19 10:52:06;;;;;;;11.82;2.22;;;14.90;99.90;;;;;;5007581;28;20038;-70
2022/09/19 10:54:36;;;;;;;9.65;1.80;;;14.90;99.90;;;;;;4993201;28;20026;-70
2022/09/19 10:57:25;;;;;;;7.28;1.40;;;14.90;99.90;;;;;;4992811;28;20533;-70
2022/09/19 10:59:54;;;;;;;8.70;2.08;;;15.10;99.90;;;;;;5009195;28;20038;-71
2022/09/19 11:02:28;;;;;;;15.18;2.20;;;15.10;99.90;;;;;;5008722;28;20030;-71
2022/09/19 11:05:00;;;;;;;10.23;2.00;;;15.10;99.90;;;;;;4994200;28;20034;-70
2022/09/19 11:07:48;;;;;;;7.32;1.60;;;15.10;99.90;;;;;;5008880;28;20215;-70
2022/09/19 11:10:33;;;;;;;6.65;1.25;;;15.10;99.90;;;;;;5009086;28;20022;-71
2022/09/19 11:13:17;;;;;;;10.45;1.65;;;15.10;99.90;;;;;;5009779;28;20097;-71
2022/09/19 11:16:06;;;;;;;10.02;1.38;;;15.10;99.90;;;;;;5003257;28;20065;-70
2022/09/19 11:19:03;;;;;;;5.85;1.65;;;15.20;99.90;;;;;;5000370;28;20388;-70
2022/09/19 11:22:04;;;;;;;5.85;1.50;;;15.20;99.90;;;;;;5011036;28;20562;-70
2022/09/19 11:24:58;;;;;;;9.70;2.72;;;15.30;99.90;;;;;;5014921;28;20033;-70
2022/09/19 11:27:47;;;;;;;6.07;1.48;;;15.30;99.90;;;;;;4991042;28;20069;-70
2022/09/19 11:30:19;;;;;;;7.40;1.40;;;15.00;99.80;;;;;;5015852;28;20403;-70
2022/09/19 11:33:34;;;;;;;6.72;1.52;;;14.80;99.90;;;;;;5002721;28;20030;-70
2022/09/19 11:37:01;;;;;;;4.20;1.10;;;14.50;99.90;;;;;;5003557;28;20077;-70
2022/09/19 11:39:49;;;;;;;2.63;1.30;;;14.20;99.90;;;;;;4990385;28;20416;-70
2022/09/19 11:42:33;;;;;;;5.00;1.15;;;14.00;99.90;;;;;;5002735;28;20034;-70
2022/09/19 11:45:08;;;;;;;6.05;2.08;;;13.80;99.90;;;;;;5002988;28;20101;-70
2022/09/19 11:47:34;;;;;;;5.72;1.77;;;13.70;99.90;;;;;;5010468;28;20030;-70
2022/09/19 11:50:10;;;;;;;5.85;2.00;;;13.50;99.90;;;;;;5026497;28;20107;-70
2022/09/19 11:53:18;;;;;;;5.35;1.83;;;13.50;99.90;;;;;;5010920;28;20030;-70
2022/09/19 11:56:25;;;;;;;4.97;1.05;;;13.40;99.90;;;;;;5008561;28;20030;-70
2022/09/19 11:59:03;;;;;;;5.60;1.60;;;13.40;99.90;;;;;;5011403;28;20034;-70
2022/09/19 12:01:36;;;;;;;;;;;13.40;99.90;;;;;;4996203;28;20040;-70
2022/09/19 12:04:37;;;;;;;5.03;1.50;;;13.50;99.90;;;;;;4990508;28;20009;-70
2022/09/19 12:07:42;;;;;;;4.97;1.30;;;13.50;99.90;;;;;;5009844;28;20038;-70
2022/09/19 12:11:05;;;;;;;5.07;1.50;;;13.50;99.90;;;;;;5011167;28;20022;-70
2022/09/19 12:13:42;;;;;;;7.13;2.03;;;13.50;99.90;;;;;;4993886;28;20046;-70
2022/09/19 12:16:16;;;;;;;7.18;1.55;;;13.50;99.90;;;;;;4989764;28;20504;-70
2022/09/19 12:18:55;;;;;;;2.63;1.02;;;13.50;99.90;;;;;;4998525;28;20438;-70
2022/09/19 12:21:24;;;;;;;4.72;1.25;;;13.50;99.90;;;;;;4998511;28;20041;-69
2022/09/19 12:26:55;;;;;;;5.80;1.30;;;13.50;99.90;;;;;;5009695;28;20100;-70
2022/09/19 12:29:59;;;;;;;5.43;1.80;;;13.50;99.90;;;;;;5009803;28;20037;-71
2022/09/19 12:32:47;;;;;;;5.50;1.90;;;13.60;99.90;;;;;;4991199;28;20030;-71
2022/09/19 12:35:38;;;;;;;8.35;2.75;;;13.70;99.90;;;;;;5008014;28;20490;-71
2022/09/19 12:38:36;;;;;;;11.57;3.05;;;13.80;99.90;;;;;;5026309;28;20041;-71
2022/09/19 12:41:13;;;;;;;9.93;3.63;;;14.00;99.90;;;;;;5009836;28;20030;-72
2022/09/19 12:43:44;;;;;;;14.65;3.15;;;14.20;99.90;;;;;;5026217;28;20146;-70
2022/09/19 12:46:16;;;;;;;12.25;3.83;;;14.30;99.90;;;;;;4992339;28;20030;-71
2022/09/19 12:49:12;;;;;;;14.65;3.40;;;14.30;99.90;;;;;;4998124;28;20037;-70
2022/09/19 12:52:26;;;;;;;9.10;2.20;;;14.40;99.90;;;;;;4999667;28;20510;-70
2022/09/19 12:55:03;;;;;;;10.27;1.77;;;14.60;99.90;;;;;;4990371;28;20042;-71
2022/09/19 12:58:16;;;;;;;10.43;1.88;;;14.70;99.90;;;;;;4999631;28;20092;-71
2022/09/19 13:00:45;;;;;;;5.50;1.50;;;14.70;99.90;;;;;;4999031;28;20056;-71
2022/09/19 13:03:25;;;;;;;4.80;1.52;;;14.80;99.90;;;;;;5006952;28;20037;-73
2022/09/19 13:05:56;;;;;;;6.25;1.98;;;14.80;99.90;;;;;;4990938;28;20057;-73
2022/09/19 13:08:30;;;;;;;7.03;1.52;;;14.70;99.90;;;;;;5002572;28;20475;-73
2022/09/19 13:11:20;;;;;;;4.10;1.10;;;14.80;99.90;;;;;;4993224;28;20038;-73
2022/09/19 13:14:20;;;;;;;6.20;1.75;;;14.70;99.90;;;;;;4999799;28;20026;-73
2022/09/19 13:25:16;;;;;;;3.80;0.90;;;14.40;99.90;;;;;;5010728;28;20464;-72
2022/09/19 13:28:06;;;;;;;4.30;0.82;;;14.20;99.90;;;;;;5005684;28;20034;-72
2022/09/19 13:31:04;;;;;;;6.55;0.95;;;14.20;99.90;;;;;;4990525;28;20033;-72
2022/09/19 13:33:50;;;;;;;3.28;0.90;;;14.10;99.90;;;;;;4993365;28;20125;-72
2022/09/19 13:36:36;;;;;;;4.30;0.82;;;14.10;99.90;;;;;;4990855;28;20026;-72
2022/09/19 13:39:04;;;;;;;5.20;0.80;;;14.10;99.90;;;;;;5004939;28;20030;-72
2022/09/19 13:41:48;;;;;;;5.43;0.93;;;14.10;99.90;;;;;;4989003;28;20046;-71
2022/09/19 13:44:36;;;;;;;3.63;0.73;;;14.20;99.90;;;;;;4990777;28;20535;-72
2022/09/19 13:47:22;;;;;;;7.80;1.00;;;14.20;99.90;;;;;;5004936;28;20069;-72
2022/09/19 13:50:06;;;;;;;3.63;0.93;;;14.20;99.90;;;;;;4990511;28;20031;-73
2022/09/19 13:52:39;;;;;;;3.38;1.00;;;14.30;99.90;;;;;;4990248;28;20022;-72
2022/09/19 13:55:14;;;;;;;6.20;1.40;;;14.40;99.90;;;;;;5005796;28;20153;-73
2022/09/19 13:57:42;;;;;;;5.57;1.85;;;14.40;99.90;;;;;;4992415;28;20046;-73
2022/09/19 14:00:27;;;;;;;4.28;1.00;;;14.40;99.90;;;;;;5009953;28;20104;-73
2022/09/19 14:03:18;;;;;;;5.18;1.58;;;14.50;99.90;;;;;;4993264;28;20396;-72
2022/09/19 14:05:44;;;;;;;5.53;1.30;;;14.50;99.90;;;;;;4990262;28;20038;-73